Terminal Aerodrome Forecast
Issued by NWS

Home | Current Version | Previous Version | Text Only | Print | Product List | Glossary On
Versions: 1 2 3 4 5 6 7 8 9 10 11 12 13
000
FTUS42 TJSJ 020010 RRA
TAFNCM
TAF
TNCM 020010Z 0200/0224 09009KT P6SM VCTS FEW015CB BKN050 BKN120
      TEMPO 0200/0202 VRB12G19KT 5SM SHRA SCT015 BKN020
     FM020230 08008KT P6SM -RA SCT020 SCT050 SCT120
     FM021230 12011KT P6SM FEW022=

USA.gov is the U.S. government's official web portal to all federal, state and local government web resources and services.